sensor_id;sensor_type;location;lat;lon;timestamp;P1;durP1;ratioP1;P2;durP2;ratioP2
23080;SDS011;72373;50.562;8.498;2023-10-19T00:00:34;14.00;;;9.32;;
23080;SDS011;72373;50.562;8.498;2023-10-19T00:03:04;16.17;;;9.07;;
23080;SDS011;72373;50.562;8.498;2023-10-19T00:05:33;13.38;;;9.82;;
23080;SDS011;72373;50.562;8.498;2023-10-19T00:08:00;15.30;;;9.23;;
23080;SDS011;72373;50.562;8.498;2023-10-19T00:10:30;12.85;;;9.05;;
23080;SDS011;72373;50.562;8.498;2023-10-19T00:13:03;13.10;;;9.48;;
23080;SDS011;72373;50.562;8.498;2023-10-19T00:15:34;15.68;;;9.65;;
23080;SDS011;72373;50.562;8.498;2023-10-19T00:18:03;14.27;;;9.77;;
23080;SDS011;72373;50.562;8.498;2023-10-19T00:20:41;17.85;;;10.02;;
23080;SDS011;72373;50.562;8.498;2023-10-19T00:23:10;16.80;;;10.40;;
23080;SDS011;72373;50.562;8.498;2023-10-19T00:25:38;16.60;;;10.52;;
23080;SDS011;72373;50.562;8.498;2023-10-19T00:28:06;17.98;;;11.05;;
23080;SDS011;72373;50.562;8.498;2023-10-19T00:30:32;17.73;;;11.07;;
23080;SDS011;72373;50.562;8.498;2023-10-19T00:33:00;15.13;;;10.10;;
23080;SDS011;72373;50.562;8.498;2023-10-19T00:35:30;18.70;;;10.88;;
23080;SDS011;72373;50.562;8.498;2023-10-19T00:38:07;16.52;;;10.38;;
23080;SDS011;72373;50.562;8.498;2023-10-19T00:40:52;16.40;;;11.35;;
23080;SDS011;72373;50.562;8.498;2023-10-19T00:43:32;15.77;;;11.07;;
23080;SDS011;72373;50.562;8.498;2023-10-19T00:46:04;17.02;;;10.52;;
23080;SDS011;72373;50.562;8.498;2023-10-19T00:51:14;16.70;;;10.68;;
23080;SDS011;72373;50.562;8.498;2023-10-19T00:54:02;18.02;;;11.93;;
23080;SDS011;72373;50.562;8.498;2023-10-19T00:56:34;16.80;;;11.05;;
23080;SDS011;72373;50.562;8.498;2023-10-19T00:59:01;16.98;;;10.70;;
23080;SDS011;72373;50.562;8.498;2023-10-19T01:01:39;19.05;;;11.93;;
23080;SDS011;72373;50.562;8.498;2023-10-19T01:04:12;19.38;;;11.48;;
23080;SDS011;72373;50.562;8.498;2023-10-19T01:06:43;16.13;;;10.48;;
23080;SDS011;72373;50.562;8.498;2023-10-19T01:09:12;17.30;;;11.80;;
23080;SDS011;72373;50.562;8.498;2023-10-19T01:11:45;18.33;;;11.90;;
23080;SDS011;72373;50.562;8.498;2023-10-19T01:14:18;21.10;;;12.35;;
23080;SDS011;72373;50.562;8.498;2023-10-19T01:16:45;16.95;;;11.00;;
23080;SDS011;72373;50.562;8.498;2023-10-19T01:19:13;18.73;;;12.15;;
23080;SDS011;72373;50.562;8.498;2023-10-19T01:21:43;19.33;;;11.80;;
23080;SDS011;72373;50.562;8.498;2023-10-19T01:24:13;20.83;;;12.20;;
23080;SDS011;72373;50.562;8.498;2023-10-19T01:26:41;17.48;;;11.75;;
23080;SDS011;72373;50.562;8.498;2023-10-19T01:29:07;15.80;;;10.95;;
23080;SDS011;72373;50.562;8.498;2023-10-19T01:31:39;19.90;;;12.52;;
23080;SDS011;72373;50.562;8.498;2023-10-19T01:34:17;17.80;;;11.98;;
23080;SDS011;72373;50.562;8.498;2023-10-19T01:36:46;22.00;;;11.98;;
23080;SDS011;72373;50.562;8.498;2023-10-19T01:39:15;17.35;;;11.63;;
23080;SDS011;72373;50.562;8.498;2023-10-19T01:41:43;17.17;;;11.57;;
23080;SDS011;72373;50.562;8.498;2023-10-19T01:44:09;20.80;;;11.57;;
23080;SDS011;72373;50.562;8.498;2023-10-19T01:46:38;19.85;;;11.93;;
23080;SDS011;72373;50.562;8.498;2023-10-19T01:49:05;19.45;;;11.85;;
23080;SDS011;72373;50.562;8.498;2023-10-19T01:51:33;20.58;;;11.75;;
23080;SDS011;72373;50.562;8.498;2023-10-19T01:54:03;16.50;;;10.88;;
23080;SDS011;72373;50.562;8.498;2023-10-19T01:56:30;18.63;;;11.85;;
23080;SDS011;72373;50.562;8.498;2023-10-19T01:58:56;17.33;;;11.52;;
23080;SDS011;72373;50.562;8.498;2023-10-19T02:01:22;17.55;;;11.00;;
23080;SDS011;72373;50.562;8.498;2023-10-19T02:03:51;19.77;;;11.90;;
23080;SDS011;72373;50.562;8.498;2023-10-19T02:06:22;18.75;;;10.80;;
23080;SDS011;72373;50.562;8.498;2023-10-19T02:08:55;15.70;;;10.77;;
23080;SDS011;72373;50.562;8.498;2023-10-19T02:11:25;22.50;;;11.60;;
23080;SDS011;72373;50.562;8.498;2023-10-19T02:13:53;17.50;;;10.93;;
23080;SDS011;72373;50.562;8.498;2023-10-19T02:16:21;19.90;;;11.77;;
23080;SDS011;72373;50.562;8.498;2023-10-19T02:18:47;18.67;;;11.55;;
23080;SDS011;72373;50.562;8.498;2023-10-19T02:21:14;15.55;;;10.23;;
23080;SDS011;72373;50.562;8.498;2023-10-19T02:23:41;17.80;;;11.20;;
23080;SDS011;72373;50.562;8.498;2023-10-19T02:26:06;15.43;;;10.45;;
23080;SDS011;72373;50.562;8.498;2023-10-19T02:28:33;16.08;;;10.43;;
23080;SDS011;72373;50.562;8.498;2023-10-19T02:31:03;16.13;;;10.77;;
23080;SDS011;72373;50.562;8.498;2023-10-19T02:33:45;16.60;;;10.25;;
23080;SDS011;72373;50.562;8.498;2023-10-19T02:36:14;17.65;;;10.70;;
23080;SDS011;72373;50.562;8.498;2023-10-19T02:38:41;14.98;;;10.25;;
23080;SDS011;72373;50.562;8.498;2023-10-19T02:41:13;19.23;;;11.77;;
23080;SDS011;72373;50.562;8.498;2023-10-19T02:43:42;17.38;;;11.13;;
23080;SDS011;72373;50.562;8.498;2023-10-19T02:46:15;16.23;;;10.90;;
23080;SDS011;72373;50.562;8.498;2023-10-19T02:48:42;16.23;;;10.57;;
23080;SDS011;72373;50.562;8.498;2023-10-19T02:51:14;20.75;;;12.23;;
23080;SDS011;72373;50.562;8.498;2023-10-19T02:53:40;17.90;;;11.65;;
23080;SDS011;72373;50.562;8.498;2023-10-19T02:56:11;17.73;;;11.80;;
23080;SDS011;72373;50.562;8.498;2023-10-19T02:58:40;19.88;;;12.07;;
23080;SDS011;72373;50.562;8.498;2023-10-19T03:01:17;19.58;;;11.82;;
23080;SDS011;72373;50.562;8.498;2023-10-19T03:03:46;20.33;;;12.05;;
23080;SDS011;72373;50.562;8.498;2023-10-19T03:06:22;19.80;;;11.80;;
23080;SDS011;72373;50.562;8.498;2023-10-19T03:08:48;19.98;;;12.18;;
23080;SDS011;72373;50.562;8.498;2023-10-19T03:11:25;22.80;;;13.02;;
23080;SDS011;72373;50.562;8.498;2023-10-19T03:13:54;22.65;;;13.52;;
23080;SDS011;72373;50.562;8.498;2023-10-19T03:16:22;22.27;;;13.07;;
23080;SDS011;72373;50.562;8.498;2023-10-19T03:18:48;21.60;;;12.45;;
23080;SDS011;72373;50.562;8.498;2023-10-19T03:21:15;24.42;;;13.63;;
23080;SDS011;72373;50.562;8.498;2023-10-19T03:23:42;19.50;;;12.68;;
23080;SDS011;72373;50.562;8.498;2023-10-19T03:26:08;20.95;;;13.32;;
23080;SDS011;72373;50.562;8.498;2023-10-19T03:28:43;26.23;;;14.45;;
23080;SDS011;72373;50.562;8.498;2023-10-19T03:31:09;25.40;;;15.55;;
23080;SDS011;72373;50.562;8.498;2023-10-19T03:33:42;23.95;;;13.43;;
23080;SDS011;72373;50.562;8.498;2023-10-19T03:36:09;23.52;;;14.00;;
23080;SDS011;72373;50.562;8.498;2023-10-19T03:38:38;23.63;;;13.65;;
23080;SDS011;72373;50.562;8.498;2023-10-19T03:41:05;23.10;;;12.73;;
23080;SDS011;72373;50.562;8.498;2023-10-19T03:43:33;22.05;;;12.57;;
23080;SDS011;72373;50.562;8.498;2023-10-19T03:46:01;23.23;;;13.13;;
23080;SDS011;72373;50.562;8.498;2023-10-19T03:48:31;25.85;;;14.90;;
23080;SDS011;72373;50.562;8.498;2023-10-19T03:51:03;25.15;;;14.57;;
23080;SDS011;72373;50.562;8.498;2023-10-19T03:53:30;26.58;;;14.52;;
23080;SDS011;72373;50.562;8.498;2023-10-19T03:56:03;23.35;;;13.85;;
23080;SDS011;72373;50.562;8.498;2023-10-19T03:58:32;25.92;;;15.73;;
23080;SDS011;72373;50.562;8.498;2023-10-19T04:00:57;23.23;;;13.52;;
23080;SDS011;72373;50.562;8.498;2023-10-19T04:03:26;25.17;;;13.90;;
23080;SDS011;72373;50.562;8.498;2023-10-19T04:05:55;23.70;;;14.13;;
23080;SDS011;72373;50.562;8.498;2023-10-19T04:08:21;25.70;;;14.95;;
23080;SDS011;72373;50.562;8.498;2023-10-19T04:10:51;24.13;;;14.02;;
23080;SDS011;72373;50.562;8.498;2023-10-19T04:13:35;25.58;;;13.43;;
23080;SDS011;72373;50.562;8.498;2023-10-19T04:16:03;27.02;;;15.05;;
23080;SDS011;72373;50.562;8.498;2023-10-19T04:18:33;23.88;;;13.85;;
23080;SDS011;72373;50.562;8.498;2023-10-19T04:21:00;27.58;;;15.65;;
23080;SDS011;72373;50.562;8.498;2023-10-19T04:23:27;28.85;;;16.00;;
23080;SDS011;72373;50.562;8.498;2023-10-19T04:25:55;27.33;;;14.02;;
23080;SDS011;72373;50.562;8.498;2023-10-19T04:28:22;26.13;;;15.95;;
23080;SDS011;72373;50.562;8.498;2023-10-19T04:30:55;31.23;;;17.27;;
23080;SDS011;72373;50.562;8.498;2023-10-19T04:33:31;22.08;;;14.05;;
23080;SDS011;72373;50.562;8.498;2023-10-19T04:35:57;33.42;;;16.80;;
23080;SDS011;72373;50.562;8.498;2023-10-19T04:38:29;30.48;;;15.77;;
23080;SDS011;72373;50.562;8.498;2023-10-19T04:41:03;25.02;;;14.30;;
23080;SDS011;72373;50.562;8.498;2023-10-19T04:43:33;24.27;;;14.27;;
23080;SDS011;72373;50.562;8.498;2023-10-19T04:46:00;25.73;;;13.35;;
23080;SDS011;72373;50.562;8.498;2023-10-19T04:48:33;27.45;;;15.10;;
23080;SDS011;72373;50.562;8.498;2023-10-19T04:51:00;30.27;;;15.98;;
23080;SDS011;72373;50.562;8.498;2023-10-19T04:53:26;30.08;;;16.13;;
23080;SDS011;72373;50.562;8.498;2023-10-19T04:55:52;33.35;;;16.05;;
23080;SDS011;72373;50.562;8.498;2023-10-19T04:58:17;29.58;;;15.93;;
23080;SDS011;72373;50.562;8.498;2023-10-19T05:00:43;29.50;;;16.08;;
23080;SDS011;72373;50.562;8.498;2023-10-19T05:03:08;29.15;;;16.77;;
23080;SDS011;72373;50.562;8.498;2023-10-19T05:05:34;31.42;;;17.20;;
23080;SDS011;72373;50.562;8.498;2023-10-19T05:08:00;31.58;;;17.48;;
23080;SDS011;72373;50.562;8.498;2023-10-19T05:10:26;38.15;;;18.20;;
23080;SDS011;72373;50.562;8.498;2023-10-19T05:12:51;30.50;;;16.92;;
23080;SDS011;72373;50.562;8.498;2023-10-19T05:15:20;34.08;;;16.98;;
23080;SDS011;72373;50.562;8.498;2023-10-19T05:17:45;32.17;;;17.23;;
23080;SDS011;72373;50.562;8.498;2023-10-19T05:20:11;35.85;;;18.40;;
23080;SDS011;72373;50.562;8.498;2023-10-19T05:22:36;34.90;;;16.95;;
23080;SDS011;72373;50.562;8.498;2023-10-19T05:25:02;32.67;;;17.67;;
23080;SDS011;72373;50.562;8.498;2023-10-19T05:27:28;40.35;;;18.02;;
23080;SDS011;72373;50.562;8.498;2023-10-19T05:29:54;37.33;;;18.05;;
23080;SDS011;72373;50.562;8.498;2023-10-19T05:32:20;37.33;;;18.38;;
23080;SDS011;72373;50.562;8.498;2023-10-19T05:34:46;35.03;;;18.25;;
23080;SDS011;72373;50.562;8.498;2023-10-19T05:37:12;44.13;;;18.73;;
23080;SDS011;72373;50.562;8.498;2023-10-19T05:39:37;38.83;;;17.88;;
23080;SDS011;72373;50.562;8.498;2023-10-19T05:42:03;39.10;;;18.85;;
23080;SDS011;72373;50.562;8.498;2023-10-19T05:44:29;44.17;;;19.40;;
23080;SDS011;72373;50.562;8.498;2023-10-19T05:46:55;39.10;;;19.17;;
23080;SDS011;72373;50.562;8.498;2023-10-19T05:49:21;44.08;;;20.23;;
23080;SDS011;72373;50.562;8.498;2023-10-19T05:51:48;46.97;;;20.67;;
23080;SDS011;72373;50.562;8.498;2023-10-19T05:54:14;42.88;;;20.48;;
23080;SDS011;72373;50.562;8.498;2023-10-19T05:56:40;46.65;;;19.63;;
23080;SDS011;72373;50.562;8.498;2023-10-19T05:59:05;46.95;;;21.27;;
23080;SDS011;72373;50.562;8.498;2023-10-19T06:01:31;43.80;;;19.73;;
23080;SDS011;72373;50.562;8.498;2023-10-19T06:03:57;45.25;;;19.33;;
23080;SDS011;72373;50.562;8.498;2023-10-19T06:06:23;47.03;;;19.90;;
23080;SDS011;72373;50.562;8.498;2023-10-19T06:08:48;44.88;;;20.38;;
23080;SDS011;72373;50.562;8.498;2023-10-19T06:11:18;45.55;;;21.17;;
23080;SDS011;72373;50.562;8.498;2023-10-19T06:13:44;44.72;;;19.95;;
23080;SDS011;72373;50.562;8.498;2023-10-19T06:16:11;43.67;;;20.35;;
23080;SDS011;72373;50.562;8.498;2023-10-19T06:18:36;47.10;;;20.05;;
23080;SDS011;72373;50.562;8.498;2023-10-19T06:21:02;48.22;;;20.42;;
23080;SDS011;72373;50.562;8.498;2023-10-19T06:23:29;52.95;;;22.13;;
23080;SDS011;72373;50.562;8.498;2023-10-19T06:25:56;43.65;;;19.25;;
23080;SDS011;72373;50.562;8.498;2023-10-19T06:28:22;45.78;;;19.70;;
23080;SDS011;72373;50.562;8.498;2023-10-19T06:30:47;49.42;;;21.52;;
23080;SDS011;72373;50.562;8.498;2023-10-19T06:33:13;53.80;;;20.98;;
23080;SDS011;72373;50.562;8.498;2023-10-19T06:35:39;44.88;;;19.00;;
23080;SDS011;72373;50.562;8.498;2023-10-19T06:38:05;40.95;;;18.98;;
23080;SDS011;72373;50.562;8.498;2023-10-19T06:40:33;41.10;;;19.05;;
23080;SDS011;72373;50.562;8.498;2023-10-19T06:43:01;44.58;;;20.20;;
23080;SDS011;72373;50.562;8.498;2023-10-19T06:45:27;48.83;;;20.55;;
23080;SDS011;72373;50.562;8.498;2023-10-19T06:47:55;50.50;;;21.38;;
23080;SDS011;72373;50.562;8.498;2023-10-19T06:50:21;54.83;;;20.45;;
23080;SDS011;72373;50.562;8.498;2023-10-19T06:52:48;50.90;;;20.80;;
23080;SDS011;72373;50.562;8.498;2023-10-19T06:55:14;57.63;;;22.92;;
23080;SDS011;72373;50.562;8.498;2023-10-19T06:57:43;53.70;;;23.27;;
23080;SDS011;72373;50.562;8.498;2023-10-19T07:00:13;54.45;;;23.88;;
23080;SDS011;72373;50.562;8.498;2023-10-19T07:02:41;57.70;;;22.25;;
23080;SDS011;72373;50.562;8.498;2023-10-19T07:05:08;63.30;;;23.58;;
23080;SDS011;72373;50.562;8.498;2023-10-19T07:07:41;49.42;;;20.55;;
23080;SDS011;72373;50.562;8.498;2023-10-19T07:10:09;48.25;;;21.33;;
23080;SDS011;72373;50.562;8.498;2023-10-19T07:12:37;67.07;;;23.13;;
23080;SDS011;72373;50.562;8.498;2023-10-19T07:15:05;40.60;;;18.05;;
23080;SDS011;72373;50.562;8.498;2023-10-19T07:17:32;27.75;;;16.20;;
23080;SDS011;72373;50.562;8.498;2023-10-19T07:19:59;32.13;;;16.67;;
23080;SDS011;72373;50.562;8.498;2023-10-19T07:22:25;30.13;;;16.40;;
23080;SDS011;72373;50.562;8.498;2023-10-19T07:24:50;26.42;;;15.55;;
23080;SDS011;72373;50.562;8.498;2023-10-19T07:27:16;24.05;;;14.93;;
23080;SDS011;72373;50.562;8.498;2023-10-19T07:29:45;26.88;;;14.52;;
23080;SDS011;72373;50.562;8.498;2023-10-19T07:32:11;24.98;;;15.80;;
23080;SDS011;72373;50.562;8.498;2023-10-19T07:34:38;26.38;;;15.63;;
23080;SDS011;72373;50.562;8.498;2023-10-19T07:37:04;29.27;;;15.95;;
23080;SDS011;72373;50.562;8.498;2023-10-19T07:39:32;28.90;;;14.90;;
23080;SDS011;72373;50.562;8.498;2023-10-19T07:41:58;24.17;;;16.35;;
23080;SDS011;72373;50.562;8.498;2023-10-19T07:44:24;29.48;;;16.45;;
23080;SDS011;72373;50.562;8.498;2023-10-19T07:46:50;29.63;;;15.10;;
23080;SDS011;72373;50.562;8.498;2023-10-19T07:49:17;23.50;;;15.02;;
23080;SDS011;72373;50.562;8.498;2023-10-19T07:51:46;26.92;;;15.35;;
23080;SDS011;72373;50.562;8.498;2023-10-19T07:54:13;23.60;;;14.50;;
23080;SDS011;72373;50.562;8.498;2023-10-19T07:56:38;27.90;;;15.63;;
23080;SDS011;72373;50.562;8.498;2023-10-19T07:59:04;27.73;;;15.52;;
23080;SDS011;72373;50.562;8.498;2023-10-19T08:01:31;30.73;;;15.85;;
23080;SDS011;72373;50.562;8.498;2023-10-19T08:03:57;29.10;;;15.65;;
23080;SDS011;72373;50.562;8.498;2023-10-19T08:06:23;35.35;;;15.70;;
23080;SDS011;72373;50.562;8.498;2023-10-19T08:08:48;26.13;;;14.15;;
23080;SDS011;72373;50.562;8.498;2023-10-19T08:11:15;28.40;;;16.30;;
23080;SDS011;72373;50.562;8.498;2023-10-19T08:13:40;28.27;;;15.05;;
23080;SDS011;72373;50.562;8.498;2023-10-19T08:16:06;30.40;;;15.68;;
23080;SDS011;72373;50.562;8.498;2023-10-19T08:18:32;30.13;;;15.82;;
23080;SDS011;72373;50.562;8.498;2023-10-19T08:21:00;33.33;;;16.98;;
23080;SDS011;72373;50.562;8.498;2023-10-19T08:23:26;29.17;;;15.43;;
23080;SDS011;72373;50.562;8.498;2023-10-19T08:25:53;31.23;;;16.42;;
23080;SDS011;72373;50.562;8.498;2023-10-19T08:28:18;33.22;;;17.67;;
23080;SDS011;72373;50.562;8.498;2023-10-19T08:30:45;36.22;;;17.00;;
23080;SDS011;72373;50.562;8.498;2023-10-19T08:33:21;34.70;;;17.33;;
23080;SDS011;72373;50.562;8.498;2023-10-19T08:35:51;30.90;;;17.00;;
23080;SDS011;72373;50.562;8.498;2023-10-19T08:38:18;26.50;;;14.88;;
23080;SDS011;72373;50.562;8.498;2023-10-19T08:40:44;29.95;;;17.20;;
23080;SDS011;72373;50.562;8.498;2023-10-19T08:43:10;34.65;;;19.05;;
23080;SDS011;72373;50.562;8.498;2023-10-19T08:45:38;32.78;;;17.70;;
23080;SDS011;72373;50.562;8.498;2023-10-19T08:48:04;39.50;;;18.95;;
23080;SDS011;72373;50.562;8.498;2023-10-19T08:50:33;35.88;;;18.45;;
23080;SDS011;72373;50.562;8.498;2023-10-19T08:53:00;32.85;;;16.92;;
23080;SDS011;72373;50.562;8.498;2023-10-19T08:55:27;34.47;;;17.70;;
23080;SDS011;72373;50.562;8.498;2023-10-19T08:57:55;35.72;;;18.90;;
23080;SDS011;72373;50.562;8.498;2023-10-19T09:00:23;32.33;;;17.67;;
23080;SDS011;72373;50.562;8.498;2023-10-19T09:02:50;37.58;;;18.55;;
23080;SDS011;72373;50.562;8.498;2023-10-19T09:05:16;36.17;;;18.73;;
23080;SDS011;72373;50.562;8.498;2023-10-19T09:07:48;37.55;;;18.95;;
23080;SDS011;72373;50.562;8.498;2023-10-19T09:10:26;33.30;;;18.90;;
23080;SDS011;72373;50.562;8.498;2023-10-19T09:13:00;35.78;;;18.27;;
23080;SDS011;72373;50.562;8.498;2023-10-19T09:15:33;36.38;;;19.60;;
23080;SDS011;72373;50.562;8.498;2023-10-19T09:18:07;34.22;;;17.77;;
23080;SDS011;72373;50.562;8.498;2023-10-19T09:20:41;25.73;;;15.23;;
23080;SDS011;72373;50.562;8.498;2023-10-19T09:23:17;28.55;;;16.63;;
23080;SDS011;72373;50.562;8.498;2023-10-19T09:25:53;29.02;;;17.17;;
23080;SDS011;72373;50.562;8.498;2023-10-19T09:28:19;28.88;;;17.27;;
23080;SDS011;72373;50.562;8.498;2023-10-19T09:30:54;30.05;;;17.50;;
23080;SDS011;72373;50.562;8.498;2023-10-19T09:33:28;24.40;;;15.50;;
23080;SDS011;72373;50.562;8.498;2023-10-19T09:36:03;32.50;;;18.73;;
23080;SDS011;72373;50.562;8.498;2023-10-19T09:38:38;24.75;;;16.52;;
23080;SDS011;72373;50.562;8.498;2023-10-19T09:41:13;20.48;;;14.45;;
23080;SDS011;72373;50.562;8.498;2023-10-19T09:43:48;25.45;;;16.13;;
23080;SDS011;72373;50.562;8.498;2023-10-19T09:46:21;26.35;;;15.98;;
23080;SDS011;72373;50.562;8.498;2023-10-19T09:48:49;24.67;;;14.45;;
23080;SDS011;72373;50.562;8.498;2023-10-19T09:51:18;23.48;;;14.73;;
23080;SDS011;72373;50.562;8.498;2023-10-19T09:54:00;19.65;;;13.45;;
23080;SDS011;72373;50.562;8.498;2023-10-19T09:56:46;19.58;;;13.20;;
23080;SDS011;72373;50.562;8.498;2023-10-19T09:59:29;23.48;;;14.98;;
23080;SDS011;72373;50.562;8.498;2023-10-19T10:02:04;19.73;;;14.02;;
23080;SDS011;72373;50.562;8.498;2023-10-19T10:04:33;19.15;;;13.23;;
23080;SDS011;72373;50.562;8.498;2023-10-19T10:07:04;19.05;;;12.60;;
23080;SDS011;72373;50.562;8.498;2023-10-19T10:09:32;16.90;;;11.27;;
23080;SDS011;72373;50.562;8.498;2023-10-19T10:12:20;19.70;;;12.73;;
23080;SDS011;72373;50.562;8.498;2023-10-19T10:14:54;17.70;;;11.27;;
23080;SDS011;72373;50.562;8.498;2023-10-19T10:17:26;19.42;;;11.30;;
23080;SDS011;72373;50.562;8.498;2023-10-19T10:19:55;22.77;;;14.40;;
23080;SDS011;72373;50.562;8.498;2023-10-19T10:22:44;17.95;;;12.02;;
23080;SDS011;72373;50.562;8.498;2023-10-19T10:25:25;17.17;;;12.57;;
23080;SDS011;72373;50.562;8.498;2023-10-19T10:27:56;15.32;;;11.45;;
23080;SDS011;72373;50.562;8.498;2023-10-19T10:30:25;16.55;;;11.63;;
23080;SDS011;72373;50.562;8.498;2023-10-19T10:32:53;20.83;;;12.68;;
23080;SDS011;72373;50.562;8.498;2023-10-19T10:38:06;18.17;;;11.30;;
23080;SDS011;72373;50.562;8.498;2023-10-19T10:40:44;18.30;;;10.27;;
23080;SDS011;72373;50.562;8.498;2023-10-19T10:43:11;18.55;;;12.10;;
23080;SDS011;72373;50.562;8.498;2023-10-19T10:45:37;20.73;;;12.50;;
23080;SDS011;72373;50.562;8.498;2023-10-19T10:48:16;15.75;;;11.30;;
23080;SDS011;72373;50.562;8.498;2023-10-19T10:51:01;17.95;;;10.98;;
23080;SDS011;72373;50.562;8.498;2023-10-19T10:53:42;17.20;;;10.90;;
23080;SDS011;72373;50.562;8.498;2023-10-19T10:56:07;18.45;;;12.13;;
23080;SDS011;72373;50.562;8.498;2023-10-19T10:58:33;21.65;;;12.27;;
23080;SDS011;72373;50.562;8.498;2023-10-19T11:00:58;19.40;;;12.75;;
23080;SDS011;72373;50.562;8.498;2023-10-19T11:03:24;21.98;;;12.85;;
23080;SDS011;72373;50.562;8.498;2023-10-19T11:05:54;17.92;;;12.32;;
23080;SDS011;72373;50.562;8.498;2023-10-19T11:08:27;17.48;;;11.60;;
23080;SDS011;72373;50.562;8.498;2023-10-19T11:11:03;14.88;;;10.73;;
23080;SDS011;72373;50.562;8.498;2023-10-19T11:13:35;21.48;;;11.10;;
23080;SDS011;72373;50.562;8.498;2023-10-19T11:16:08;16.30;;;10.77;;
23080;SDS011;72373;50.562;8.498;2023-10-19T11:21:08;15.98;;;10.90;;
23080;SDS011;72373;50.562;8.498;2023-10-19T11:23:48;14.50;;;10.18;;
23080;SDS011;72373;50.562;8.498;2023-10-19T11:26:21;15.90;;;10.98;;
23080;SDS011;72373;50.562;8.498;2023-10-19T11:28:59;17.60;;;11.20;;
23080;SDS011;72373;50.562;8.498;2023-10-19T11:31:26;18.73;;;12.25;;
23080;SDS011;72373;50.562;8.498;2023-10-19T11:33:53;20.20;;;13.90;;
23080;SDS011;72373;50.562;8.498;2023-10-19T11:36:23;20.52;;;13.52;;
23080;SDS011;72373;50.562;8.498;2023-10-19T11:38:50;20.98;;;13.85;;
23080;SDS011;72373;50.562;8.498;2023-10-19T11:41:17;17.40;;;11.25;;
23080;SDS011;72373;50.562;8.498;2023-10-19T11:43:44;20.05;;;13.88;;
23080;SDS011;72373;50.562;8.498;2023-10-19T11:46:12;16.50;;;12.20;;
23080;SDS011;72373;50.562;8.498;2023-10-19T11:48:43;19.50;;;13.68;;
23080;SDS011;72373;50.562;8.498;2023-10-19T11:51:09;22.67;;;13.93;;
23080;SDS011;72373;50.562;8.498;2023-10-19T11:53:40;22.58;;;14.73;;
23080;SDS011;72373;50.562;8.498;2023-10-19T11:56:08;23.17;;;13.88;;
23080;SDS011;72373;50.562;8.498;2023-10-19T11:58:35;25.10;;;13.82;;
23080;SDS011;72373;50.562;8.498;2023-10-19T12:01:02;21.95;;;15.18;;
23080;SDS011;72373;50.562;8.498;2023-10-19T12:03:36;20.25;;;12.65;;
23080;SDS011;72373;50.562;8.498;2023-10-19T12:06:05;20.20;;;13.82;;
23080;SDS011;72373;50.562;8.498;2023-10-19T12:08:39;23.13;;;14.48;;
23080;SDS011;72373;50.562;8.498;2023-10-19T12:11:18;22.55;;;13.65;;
23080;SDS011;72373;50.562;8.498;2023-10-19T12:13:50;23.60;;;14.30;;
23080;SDS011;72373;50.562;8.498;2023-10-19T12:16:18;27.10;;;15.10;;
23080;SDS011;72373;50.562;8.498;2023-10-19T12:18:46;21.40;;;13.70;;
23080;SDS011;72373;50.562;8.498;2023-10-19T12:21:15;19.13;;;12.55;;
23080;SDS011;72373;50.562;8.498;2023-10-19T12:23:43;21.80;;;11.70;;
23080;SDS011;72373;50.562;8.498;2023-10-19T12:26:09;21.92;;;13.73;;
23080;SDS011;72373;50.562;8.498;2023-10-19T12:28:41;24.15;;;12.52;;
23080;SDS011;72373;50.562;8.498;2023-10-19T12:31:08;18.77;;;12.00;;
23080;SDS011;72373;50.562;8.498;2023-10-19T12:33:34;19.90;;;13.50;;
23080;SDS011;72373;50.562;8.498;2023-10-19T12:36:01;16.38;;;11.50;;
23080;SDS011;72373;50.562;8.498;2023-10-19T12:38:43;18.10;;;11.75;;
23080;SDS011;72373;50.562;8.498;2023-10-19T12:41:09;20.55;;;12.38;;
23080;SDS011;72373;50.562;8.498;2023-10-19T12:43:34;21.02;;;12.43;;
23080;SDS011;72373;50.562;8.498;2023-10-19T12:46:00;20.90;;;13.10;;
23080;SDS011;72373;50.562;8.498;2023-10-19T12:48:26;25.45;;;11.88;;
23080;SDS011;72373;50.562;8.498;2023-10-19T12:50:58;18.17;;;11.95;;
23080;SDS011;72373;50.562;8.498;2023-10-19T12:53:24;20.15;;;12.05;;
23080;SDS011;72373;50.562;8.498;2023-10-19T12:55:50;17.10;;;11.73;;
23080;SDS011;72373;50.562;8.498;2023-10-19T12:58:17;17.25;;;11.60;;
23080;SDS011;72373;50.562;8.498;2023-10-19T13:00:44;17.08;;;11.25;;
23080;SDS011;72373;50.562;8.498;2023-10-19T13:03:12;20.80;;;11.93;;
23080;SDS011;72373;50.562;8.498;2023-10-19T13:05:43;17.83;;;11.60;;
23080;SDS011;72373;50.562;8.498;2023-10-19T13:08:13;18.27;;;11.38;;
23080;SDS011;72373;50.562;8.498;2023-10-19T13:10:39;17.83;;;11.40;;
23080;SDS011;72373;50.562;8.498;2023-10-19T13:13:07;15.45;;;10.77;;
23080;SDS011;72373;50.562;8.498;2023-10-19T13:15:36;18.67;;;11.40;;
23080;SDS011;72373;50.562;8.498;2023-10-19T13:18:03;22.02;;;12.43;;
23080;SDS011;72373;50.562;8.498;2023-10-19T13:20:38;15.18;;;10.15;;
23080;SDS011;72373;50.562;8.498;2023-10-19T13:23:08;17.70;;;10.95;;
23080;SDS011;72373;50.562;8.498;2023-10-19T13:25:36;17.60;;;11.50;;
23080;SDS011;72373;50.562;8.498;2023-10-19T13:28:14;18.67;;;11.80;;
23080;SDS011;72373;50.562;8.498;2023-10-19T13:30:42;22.35;;;12.40;;
23080;SDS011;72373;50.562;8.498;2023-10-19T13:33:12;15.07;;;11.13;;
23080;SDS011;72373;50.562;8.498;2023-10-19T13:35:39;19.23;;;11.63;;
23080;SDS011;72373;50.562;8.498;2023-10-19T13:38:05;19.33;;;11.07;;
23080;SDS011;72373;50.562;8.498;2023-10-19T13:40:35;18.95;;;11.88;;
23080;SDS011;72373;50.562;8.498;2023-10-19T13:43:02;19.98;;;12.13;;
23080;SDS011;72373;50.562;8.498;2023-10-19T13:45:33;22.15;;;12.50;;
23080;SDS011;72373;50.562;8.498;2023-10-19T13:47:59;17.00;;;11.25;;
23080;SDS011;72373;50.562;8.498;2023-10-19T13:50:29;15.13;;;10.65;;
23080;SDS011;72373;50.562;8.498;2023-10-19T13:52:55;13.43;;;9.50;;
23080;SDS011;72373;50.562;8.498;2023-10-19T13:55:22;18.55;;;10.43;;
23080;SDS011;72373;50.562;8.498;2023-10-19T13:57:50;19.20;;;9.75;;
23080;SDS011;72373;50.562;8.498;2023-10-19T14:00:17;14.93;;;10.00;;
23080;SDS011;72373;50.562;8.498;2023-10-19T14:02:50;16.13;;;10.23;;
23080;SDS011;72373;50.562;8.498;2023-10-19T14:05:18;19.98;;;11.13;;
23080;SDS011;72373;50.562;8.498;2023-10-19T14:07:44;19.92;;;11.88;;
23080;SDS011;72373;50.562;8.498;2023-10-19T14:10:12;19.17;;;11.38;;
23080;SDS011;72373;50.562;8.498;2023-10-19T14:12:39;20.83;;;12.32;;
23080;SDS011;72373;50.562;8.498;2023-10-19T14:15:10;20.92;;;13.40;;
23080;SDS011;72373;50.562;8.498;2023-10-19T14:17:42;25.23;;;13.18;;
23080;SDS011;72373;50.562;8.498;2023-10-19T14:20:10;30.45;;;16.70;;
23080;SDS011;72373;50.562;8.498;2023-10-19T14:22:39;23.63;;;12.57;;
23080;SDS011;72373;50.562;8.498;2023-10-19T14:25:09;21.25;;;11.48;;
23080;SDS011;72373;50.562;8.498;2023-10-19T14:27:41;19.05;;;11.68;;
23080;SDS011;72373;50.562;8.498;2023-10-19T14:30:08;14.85;;;9.20;;
23080;SDS011;72373;50.562;8.498;2023-10-19T14:32:42;16.13;;;9.57;;
23080;SDS011;72373;50.562;8.498;2023-10-19T14:35:09;14.88;;;8.48;;
23080;SDS011;72373;50.562;8.498;2023-10-19T14:37:40;13.20;;;8.32;;
23080;SDS011;72373;50.562;8.498;2023-10-19T14:40:15;13.95;;;8.57;;